createdAt,value
2022-11-24T00:01:12.213Z,68.47
2022-11-24T00:03:40.258Z,66.88
2022-11-24T00:06:10.906Z,65.45
2022-11-24T00:08:41.660Z,53.15
2022-11-24T00:11:11.321Z,61.20
2022-11-24T00:13:40.176Z,59.10
2022-11-24T00:16:10.458Z,68.13
2022-11-24T00:18:38.905Z,56.45
2022-11-24T00:21:07.083Z,90.78
2022-11-24T00:23:35.566Z,80.22
2022-11-24T00:26:10.596Z,95.97
2022-11-24T00:28:39.274Z,107.28
2022-11-24T00:31:17.428Z,72.00
2022-11-24T00:33:45.652Z,70.38
2022-11-24T00:36:13.626Z,74.70
2022-11-24T00:38:41.567Z,75.93
2022-11-24T00:41:11.176Z,66.85
2022-11-24T00:43:39.197Z,122.90
2022-11-24T00:46:07.518Z,107.72
2022-11-24T00:48:35.782Z,101.40
2022-11-24T00:51:05.876Z,87.35
2022-11-24T00:53:34.037Z,102.47
2022-11-24T00:56:03.935Z,121.40
2022-11-24T00:58:33.905Z,80.90
2022-11-24T01:01:04.799Z,68.38
2022-11-24T01:03:32.777Z,102.43
2022-11-24T01:06:04.626Z,93.97
2022-11-24T01:08:32.791Z,112.75
2022-11-24T01:11:08.891Z,100.30
2022-11-24T01:13:38.290Z,100.20
2022-11-24T01:16:06.701Z,80.70
2022-11-24T01:18:34.608Z,103.50
2022-11-24T01:21:09.822Z,88.30
2022-11-24T01:23:38.363Z,89.68
2022-11-24T01:26:06.993Z,67.68
2022-11-24T01:28:35.177Z,62.90
2022-11-24T01:31:06.985Z,128.65
2022-11-24T01:33:35.258Z,79.97
2022-11-24T01:36:03.499Z,80.90
2022-11-24T01:38:31.675Z,71.85
2022-11-24T01:41:04.863Z,84.47
2022-11-24T01:43:32.915Z,60.80
2022-11-24T01:46:07.286Z,65.83
2022-11-24T01:48:38.119Z,75.03
2022-11-24T01:51:09.616Z,96.70
2022-11-24T01:53:37.823Z,71.07
2022-11-24T01:56:06.516Z,102.30
2022-11-24T01:58:35.710Z,103.88
2022-11-24T02:01:03.607Z,85.43
2022-11-24T02:03:36.512Z,81.88
2022-11-24T02:06:06.318Z,88.55
2022-11-24T02:08:42.268Z,99.93
2022-11-24T02:11:10.393Z,83.05
2022-11-24T02:13:40.006Z,112.82
2022-11-24T02:16:09.403Z,111.72
2022-11-24T02:18:39.970Z,89.88
2022-11-24T02:21:08.153Z,85.82
2022-11-24T02:23:43.048Z,78.28
2022-11-24T02:26:15.926Z,111.18
2022-11-24T02:28:45.362Z,99.07
2022-11-24T02:31:13.509Z,58.25
2022-11-24T02:33:42.047Z,91.13
2022-11-24T02:36:10.091Z,88.47
2022-11-24T02:38:38.107Z,78.70
2022-11-24T02:41:09.329Z,92.93
2022-11-24T02:43:40.073Z,76.82
2022-11-24T02:46:10.874Z,75.13
2022-11-24T02:48:38.924Z,93.30
2022-11-24T02:51:07.249Z,91.78
2022-11-24T02:53:35.298Z,57.38
2022-11-24T02:56:03.258Z,77.40
2022-11-24T02:58:31.148Z,73.68
2022-11-24T03:00:59.853Z,66.50
2022-11-24T03:03:29.337Z,73.15
2022-11-24T03:05:57.237Z,92.35
2022-11-24T03:08:25.116Z,109.25
2022-11-24T03:10:53.011Z,79.07
2022-11-24T03:13:21.232Z,83.00
2022-11-24T03:15:49.253Z,67.28
2022-11-24T03:18:17.197Z,80.85
2022-11-24T03:20:46.510Z,64.60
2022-11-24T03:23:14.432Z,61.25
2022-11-24T03:25:42.403Z,65.57
2022-11-24T03:28:10.309Z,76.95
2022-11-24T03:30:38.764Z,56.13
2022-11-24T03:33:07.256Z,67.13
2022-11-24T03:35:35.495Z,82.43
2022-11-24T03:38:04.843Z,70.22
2022-11-24T03:40:32.809Z,43.42
2022-11-24T03:43:00.754Z,80.68
2022-11-24T03:48:17.173Z,58.72
2022-11-24T03:50:45.263Z,67.70
2022-11-24T03:53:14.610Z,65.68
2022-11-24T03:55:44.299Z,68.30
2022-11-24T03:58:12.179Z,56.47
2022-11-24T04:00:40.270Z,66.75
2022-11-24T04:03:08.232Z,40.67
2022-11-24T04:05:36.898Z,55.13
2022-11-24T04:08:05.411Z,50.10
2022-11-24T04:10:42.797Z,83.32
2022-11-24T04:13:12.174Z,76.80
2022-11-24T04:15:41.112Z,54.75
2022-11-24T04:18:09.659Z,80.43
2022-11-24T04:20:38.381Z,51.47
2022-11-24T04:23:06.361Z,48.42
2022-11-24T04:25:35.889Z,67.53
2022-11-24T04:28:04.194Z,60.60
2022-11-24T04:30:32.067Z,57.60
2022-11-24T04:33:00.042Z,67.43
2022-11-24T04:35:28.257Z,50.25
2022-11-24T04:37:56.111Z,44.00
2022-11-24T04:40:24.004Z,56.33
2022-11-24T04:42:56.592Z,64.72
2022-11-24T04:45:25.007Z,56.78
2022-11-24T04:47:52.937Z,49.78
2022-11-24T04:50:20.930Z,42.35
2022-11-24T04:52:48.892Z,85.32
2022-11-24T04:55:16.849Z,49.97
2022-11-24T04:57:44.874Z,78.40
2022-11-24T05:00:15.544Z,46.78
2022-11-24T05:02:43.455Z,83.38
2022-11-24T05:05:11.479Z,50.55
2022-11-24T05:07:39.579Z,51.08
2022-11-24T05:10:26.264Z,45.58
2022-11-24T05:12:57.581Z,53.47
2022-11-24T05:15:27.257Z,50.85
2022-11-24T05:17:55.525Z,75.93
2022-11-24T05:20:23.640Z,51.63
2022-11-24T05:22:51.565Z,66.07
2022-11-24T05:25:19.402Z,54.92
2022-11-24T05:27:47.248Z,47.60
2022-11-24T05:30:15.283Z,55.20
2022-11-24T05:32:45.155Z,88.32
2022-11-24T05:35:14.239Z,61.08
2022-11-24T05:37:42.053Z,54.58
2022-11-24T05:40:10.611Z,44.17
2022-11-24T05:42:47.595Z,51.85
2022-11-24T05:45:18.041Z,50.10
2022-11-24T05:47:47.586Z,63.30
2022-11-24T05:50:17.416Z,62.38
2022-11-24T05:52:45.931Z,59.25
2022-11-24T05:55:14.989Z,59.35
2022-11-24T05:57:43.154Z,79.30
2022-11-24T06:00:12.266Z,72.53
2022-11-24T06:02:40.401Z,56.92
2022-11-24T06:05:10.120Z,46.67
2022-11-24T06:07:38.025Z,40.80
2022-11-24T06:10:06.580Z,41.78
2022-11-24T06:12:34.444Z,44.00
2022-11-24T06:15:02.272Z,51.33
2022-11-24T06:17:30.101Z,45.60
2022-11-24T06:19:58.005Z,38.08
2022-11-24T06:22:27.124Z,64.53
2022-11-24T06:24:54.992Z,49.15
2022-11-24T06:27:23.273Z,33.83
2022-11-24T06:29:51.143Z,55.50
2022-11-24T06:32:18.973Z,53.10
2022-11-24T06:34:46.868Z,38.03
2022-11-24T06:37:14.891Z,57.45
2022-11-24T06:39:44.113Z,65.50
2022-11-24T06:42:11.919Z,79.68
2022-11-24T06:44:39.831Z,36.22
2022-11-24T06:47:07.655Z,31.15
2022-11-24T06:49:35.505Z,41.30
2022-11-24T06:52:03.331Z,38.08
2022-11-24T06:54:31.898Z,45.63
2022-11-24T06:57:01.420Z,42.90
2022-11-24T06:59:29.313Z,50.75
2022-11-24T07:01:57.153Z,44.70
2022-11-24T07:04:24.984Z,47.65
2022-11-24T07:06:52.880Z,62.35
2022-11-24T07:09:20.789Z,50.22
2022-11-24T07:11:48.550Z,54.67
2022-11-24T07:14:19.096Z,55.70
2022-11-24T07:16:47.035Z,50.17
2022-11-24T07:19:17.006Z,36.30
2022-11-24T07:21:48.160Z,46.67
2022-11-24T07:24:16.079Z,47.33
2022-11-24T07:26:43.924Z,39.58
2022-11-24T07:29:11.751Z,45.30
2022-11-24T07:31:41.310Z,47.75
2022-11-24T07:34:09.276Z,43.17
2022-11-24T07:36:37.070Z,40.38
2022-11-24T07:39:07.305Z,51.20
2022-11-24T07:41:35.134Z,35.55
2022-11-24T07:44:03.037Z,37.50
2022-11-24T07:46:30.944Z,38.58
2022-11-24T07:49:00.134Z,29.85
2022-11-24T07:51:28.208Z,47.20
2022-11-24T07:53:56.016Z,42.20
2022-11-24T07:56:24.022Z,43.55
2022-11-24T07:58:53.245Z,38.55
2022-11-24T08:01:21.211Z,38.33
2022-11-24T08:03:49.380Z,46.75
2022-11-24T08:06:29.011Z,45.20
2022-11-24T08:09:00.410Z,39.33
2022-11-24T08:11:28.571Z,32.80
2022-11-24T08:13:56.409Z,34.07
2022-11-24T08:16:24.467Z,26.53
2022-11-24T08:18:54.578Z,37.03
2022-11-24T08:21:24.286Z,36.47
2022-11-24T08:23:55.739Z,37.53
2022-11-24T08:26:24.698Z,30.30
2022-11-24T08:28:55.396Z,34.50
2022-11-24T08:31:24.865Z,32.50
2022-11-24T08:33:52.759Z,35.63
2022-11-24T08:36:20.885Z,36.93
2022-11-24T08:38:54.590Z,31.67
2022-11-24T08:41:22.496Z,30.00
2022-11-24T08:43:50.409Z,36.10
2022-11-24T08:46:19.422Z,35.00
2022-11-24T08:48:49.952Z,35.37
2022-11-24T08:51:19.354Z,44.33
2022-11-24T08:53:47.446Z,42.73
2022-11-24T08:56:16.766Z,35.13
2022-11-24T08:58:44.824Z,40.60
2022-11-24T09:01:14.204Z,38.53
2022-11-24T09:03:49.730Z,40.60
2022-11-24T09:06:19.626Z,41.10
2022-11-24T09:08:48.527Z,34.47
2022-11-24T09:11:17.963Z,34.13
2022-11-24T09:13:46.430Z,36.77
2022-11-24T09:16:16.043Z,40.77
2022-11-24T09:18:44.200Z,41.90
2022-11-24T09:21:13.568Z,39.90
2022-11-24T09:23:42.305Z,41.23
2022-11-24T09:26:13.055Z,37.67
2022-11-24T09:28:42.819Z,43.70
2022-11-24T09:31:12.696Z,56.30
2022-11-24T09:33:40.973Z,53.73
2022-11-24T09:36:09.342Z,45.97
2022-11-24T09:38:37.299Z,38.50
2022-11-24T09:41:28.444Z,39.97
2022-11-24T09:44:02.398Z,47.97
2022-11-24T09:46:31.835Z,39.03
2022-11-24T09:48:59.967Z,40.67
2022-11-24T09:51:30.966Z,33.73
2022-11-24T09:54:03.068Z,34.13
2022-11-24T09:56:34.832Z,34.30
2022-11-24T09:59:06.611Z,31.93
2022-11-24T10:01:36.885Z,27.37
2022-11-24T10:04:06.673Z,33.83
2022-11-24T10:06:40.395Z,40.73
2022-11-24T10:09:30.762Z,35.30
2022-11-24T10:12:06.170Z,32.07
2022-11-24T10:14:59.518Z,32.90
2022-11-24T10:17:39.309Z,31.03
2022-11-24T10:20:11.596Z,34.00
2022-11-24T10:22:45.461Z,29.90
2022-11-24T10:25:20.281Z,38.77
2022-11-24T10:27:50.865Z,29.60
2022-11-24T10:30:22.256Z,35.47
2022-11-24T10:32:51.242Z,30.97
2022-11-24T10:35:21.559Z,28.93
2022-11-24T10:37:58.349Z,26.30
2022-11-24T10:40:57.886Z,28.87
2022-11-24T10:43:22.103Z,27.27
2022-11-24T10:45:51.476Z,27.83
2022-11-24T10:48:22.284Z,35.77
2022-11-24T10:50:50.321Z,27.40
2022-11-24T10:53:20.633Z,36.07
2022-11-24T10:56:03.671Z,31.57
2022-11-24T10:58:37.765Z,36.17
2022-11-24T11:01:25.606Z,27.57
2022-11-24T11:03:54.963Z,25.13
2022-11-24T11:06:24.351Z,31.20
2022-11-24T11:09:17.466Z,31.73
2022-11-24T11:11:48.237Z,31.17
2022-11-24T11:14:32.427Z,26.60
2022-11-24T11:17:01.667Z,31.03
2022-11-24T11:19:55.452Z,30.53
2022-11-24T11:22:26.169Z,31.13
2022-11-24T11:25:05.290Z,26.83
2022-11-24T11:27:33.173Z,32.50
2022-11-24T11:36:10.868Z,45.03
2022-11-24T11:38:40.810Z,35.43
2022-11-24T11:41:13.179Z,33.40
2022-11-24T11:43:42.215Z,32.80
2022-11-24T11:46:13.220Z,27.43
2022-11-24T11:48:46.691Z,31.33
2022-11-24T11:51:28.208Z,31.40
2022-11-24T11:54:03.160Z,29.17
2022-11-24T11:56:32.327Z,25.33
2022-11-24T11:59:26.836Z,36.53
2022-11-24T12:02:39.229Z,32.33
2022-11-24T12:05:14.170Z,28.53
2022-11-24T12:07:54.003Z,24.00
2022-11-24T12:10:27.110Z,28.93
2022-11-24T12:13:11.743Z,30.00
2022-11-24T12:15:42.467Z,29.60
2022-11-24T12:18:48.337Z,26.40
2022-11-24T12:21:17.855Z,26.73
2022-11-24T12:23:57.900Z,31.60
2022-11-24T12:26:31.177Z,29.50
2022-11-24T12:29:09.618Z,32.67
2022-11-24T12:31:43.828Z,30.17
2022-11-24T12:34:28.856Z,26.10
2022-11-24T12:37:29.891Z,30.97
2022-11-24T12:40:05.073Z,29.10
2022-11-24T12:42:39.560Z,27.77
2022-11-24T12:45:18.429Z,23.87
2022-11-24T12:48:03.763Z,28.43
2022-11-24T12:50:36.594Z,28.57
2022-11-24T12:53:09.582Z,27.83
2022-11-24T12:55:39.426Z,26.57
2022-11-24T12:58:12.453Z,31.53
2022-11-24T13:00:46.880Z,37.27
2022-11-24T13:03:22.353Z,26.93
2022-11-24T13:05:54.291Z,29.80
2022-11-24T13:08:24.185Z,24.60
2022-11-24T13:10:57.132Z,30.60
2022-11-24T13:13:29.438Z,30.33
2022-11-24T13:16:35.122Z,24.73
2022-11-24T13:19:02.402Z,25.47
2022-11-24T13:21:50.871Z,26.37
2022-11-24T13:24:28.334Z,23.87
2022-11-24T13:27:34.975Z,25.20
2022-11-24T13:30:53.734Z,31.37
2022-11-24T13:33:47.289Z,23.70
2022-11-24T13:36:31.108Z,24.07
2022-11-24T13:39:00.186Z,29.03
2022-11-24T13:42:03.980Z,24.17
2022-11-24T13:44:53.596Z,28.13
2022-11-24T13:47:46.815Z,30.23
2022-11-24T13:50:41.305Z,28.30
2022-11-24T13:53:10.807Z,28.93
2022-11-24T13:55:40.397Z,31.13
2022-11-24T13:58:28.369Z,34.77
2022-11-24T14:01:17.336Z,28.03
2022-11-24T14:04:27.878Z,30.13
2022-11-24T14:06:43.612Z,30.77
2022-11-24T14:09:23.883Z,29.23
2022-11-24T14:11:58.825Z,26.50
2022-11-24T14:14:27.037Z,31.30
2022-11-24T14:17:09.365Z,27.17
2022-11-24T14:19:37.346Z,27.53
2022-11-24T14:22:06.660Z,32.83
2022-11-24T14:24:39.740Z,29.70
2022-11-24T14:27:15.243Z,27.07
2022-11-24T14:29:54.461Z,27.57
2022-11-24T14:32:22.884Z,28.73
2022-11-24T14:34:52.141Z,30.03
2022-11-24T14:37:21.562Z,27.40
2022-11-24T14:39:49.482Z,33.83
2022-11-24T14:42:20.128Z,34.53
2022-11-24T14:44:51.047Z,35.20
2022-11-24T14:47:30.114Z,31.57
2022-11-24T14:50:08.059Z,33.23
2022-11-24T14:52:44.499Z,39.80
2022-11-24T14:55:26.168Z,46.50
2022-11-24T14:57:54.105Z,39.10
2022-11-24T15:00:28.315Z,42.43
2022-11-24T15:02:57.826Z,32.10
2022-11-24T15:05:26.250Z,37.53
2022-11-24T15:08:03.792Z,26.67
2022-11-24T15:10:35.175Z,29.47
2022-11-24T15:13:05.254Z,32.67
2022-11-24T15:15:35.113Z,35.60
2022-11-24T15:18:04.382Z,26.77
2022-11-24T15:20:35.158Z,31.90
2022-11-24T15:23:22.795Z,31.80
2022-11-24T15:25:51.521Z,30.20
2022-11-24T15:28:22.649Z,38.83
2022-11-24T15:30:51.630Z,30.10
2022-11-24T15:33:20.313Z,34.63
2022-11-24T15:35:48.445Z,37.33
2022-11-24T15:38:16.631Z,38.03
2022-11-24T15:40:47.907Z,36.50
2022-11-24T15:43:22.323Z,41.07
2022-11-24T15:45:50.197Z,47.40
2022-11-24T15:48:18.531Z,42.30
2022-11-24T15:50:46.923Z,31.73
2022-11-24T15:53:19.533Z,40.77
2022-11-24T15:55:48.964Z,45.33
2022-11-24T15:58:17.006Z,38.77
2022-11-24T16:00:45.676Z,39.70
2022-11-24T16:03:45.019Z,41.00
2022-11-24T16:06:01.547Z,46.90
2022-11-24T16:08:29.349Z,37.43
2022-11-24T16:10:58.756Z,39.83
2022-11-24T16:13:26.628Z,43.43
2022-11-24T16:15:54.763Z,38.63
2022-11-24T16:18:22.641Z,40.77
2022-11-24T16:20:50.523Z,30.40
2022-11-24T16:23:19.246Z,43.00
2022-11-24T16:25:47.089Z,40.37
2022-11-24T16:28:16.347Z,32.30
2022-11-24T16:30:46.986Z,41.70
2022-11-24T16:33:14.836Z,37.13
2022-11-24T16:35:42.696Z,50.50
2022-11-24T16:38:15.839Z,43.50
2022-11-24T16:40:43.805Z,43.40
2022-11-24T16:43:11.632Z,36.73
2022-11-24T16:45:45.170Z,36.57
2022-11-24T16:48:13.508Z,37.83
2022-11-24T16:50:41.301Z,35.20
2022-11-24T16:53:09.112Z,38.03
2022-11-24T16:55:36.939Z,41.77
2022-11-24T16:58:05.733Z,40.20
2022-11-24T17:00:33.637Z,46.13
2022-11-24T17:03:03.038Z,35.23
2022-11-24T17:05:30.888Z,46.97
2022-11-24T17:07:59.496Z,40.67
2022-11-24T17:10:27.363Z,48.10
2022-11-24T17:12:55.303Z,39.40
2022-11-24T17:15:33.627Z,41.23
2022-11-24T17:20:53.046Z,34.90
2022-11-24T17:23:20.830Z,34.80
2022-11-24T17:25:49.124Z,42.30
2022-11-24T17:28:16.945Z,31.57
2022-11-24T17:30:44.970Z,43.13
2022-11-24T17:33:14.275Z,37.40
2022-11-24T17:35:42.115Z,37.23
2022-11-24T17:38:09.927Z,40.37
2022-11-24T17:40:38.018Z,36.97
2022-11-24T17:43:05.887Z,40.83
2022-11-24T17:45:33.858Z,41.37
2022-11-24T17:48:01.924Z,53.70
2022-11-24T17:50:31.181Z,48.77
2022-11-24T17:52:59.206Z,44.03
2022-11-24T17:55:27.023Z,35.93
2022-11-24T17:57:54.883Z,39.10
2022-11-24T18:00:23.098Z,42.70
2022-11-24T18:02:51.237Z,38.90
2022-11-24T18:05:19.376Z,37.23
2022-11-24T18:07:48.609Z,34.40
2022-11-24T18:10:16.749Z,47.50
2022-11-24T18:12:44.570Z,33.50
2022-11-24T18:15:12.513Z,41.80
2022-11-24T18:17:40.355Z,31.60
2022-11-24T18:20:09.249Z,36.30
2022-11-24T18:23:04.179Z,35.30
2022-11-24T18:25:26.346Z,38.00
2022-11-24T18:27:54.163Z,41.73
2022-11-24T18:30:22.224Z,37.33
2022-11-24T18:32:50.092Z,36.30
2022-11-24T18:35:17.983Z,36.63
2022-11-24T18:37:45.814Z,31.83
2022-11-24T18:40:14.080Z,35.70
2022-11-24T18:42:43.309Z,36.33
2022-11-24T18:45:12.118Z,34.13
2022-11-24T18:47:39.973Z,34.20
2022-11-24T18:50:09.412Z,30.10
2022-11-24T18:52:37.322Z,36.17
2022-11-24T18:55:05.441Z,33.33
2022-11-24T18:57:33.297Z,37.57
2022-11-24T19:00:02.783Z,33.90
2022-11-24T19:02:30.983Z,37.63
2022-11-24T19:04:59.038Z,39.83
2022-11-24T19:07:26.975Z,39.57
2022-11-24T19:09:54.839Z,32.40
2022-11-24T19:12:23.088Z,42.53
2022-11-24T19:14:51.276Z,44.17
2022-11-24T19:17:20.707Z,35.90
2022-11-24T19:19:48.639Z,54.73
2022-11-24T19:22:16.771Z,37.47
2022-11-24T19:24:46.521Z,33.13
2022-11-24T19:27:14.575Z,37.83
2022-11-24T19:29:43.286Z,33.50
2022-11-24T19:32:11.451Z,33.53
2022-11-24T19:34:41.025Z,38.57
2022-11-24T19:37:08.953Z,44.10
2022-11-24T19:39:36.886Z,43.17
2022-11-24T19:42:05.342Z,42.00
2022-11-24T19:44:33.627Z,36.60
2022-11-24T19:47:08.444Z,44.37
2022-11-24T19:49:36.477Z,37.77
2022-11-24T19:52:05.887Z,35.50
2022-11-24T19:54:35.913Z,36.13
2022-11-24T19:57:04.803Z,44.00
2022-11-24T19:59:33.773Z,43.87
2022-11-24T20:02:02.896Z,34.43
2022-11-24T20:04:32.904Z,37.83
2022-11-24T20:07:01.525Z,41.38
2022-11-24T20:09:33.094Z,39.17
2022-11-24T20:12:02.203Z,40.17
2022-11-24T20:14:31.968Z,42.17
2022-11-24T20:17:00.797Z,45.13
2022-11-24T20:19:29.453Z,43.10
2022-11-24T20:21:57.681Z,41.20
2022-11-24T20:24:26.234Z,44.43
2022-11-24T20:26:59.858Z,46.07
2022-11-24T20:29:30.290Z,45.90
2022-11-24T20:31:59.035Z,43.57
2022-11-24T20:34:28.508Z,36.73
2022-11-24T20:36:58.206Z,44.20
2022-11-24T20:39:28.933Z,49.03
2022-11-24T20:41:59.867Z,43.70
2022-11-24T20:44:30.235Z,42.53
2022-11-24T20:47:02.060Z,36.87
2022-11-24T20:49:36.047Z,46.77
2022-11-24T20:52:11.226Z,34.30
2022-11-24T20:54:43.623Z,43.37
2022-11-24T20:57:18.070Z,153.07
2022-11-24T20:59:53.001Z,46.97
2022-11-24T21:02:29.258Z,49.17
2022-11-24T21:05:00.696Z,45.53
2022-11-24T21:07:32.396Z,49.07
2022-11-24T21:10:03.802Z,60.37
2022-11-24T21:12:33.878Z,40.00
2022-11-24T21:15:01.904Z,86.13
2022-11-24T21:17:29.860Z,56.23
2022-11-24T21:20:00.975Z,59.43
2022-11-24T21:22:29.314Z,64.53
2022-11-24T21:24:57.200Z,52.13
2022-11-24T21:27:25.204Z,62.37
2022-11-24T21:29:54.474Z,51.93
2022-11-24T21:32:22.964Z,47.53
2022-11-24T21:34:50.836Z,53.03
2022-11-24T21:37:18.691Z,54.50
2022-11-24T21:39:46.911Z,54.90
2022-11-24T21:42:15.040Z,47.73
2022-11-24T21:44:42.966Z,44.37
2022-11-24T21:47:12.209Z,53.47
2022-11-24T21:49:40.212Z,37.50
2022-11-24T21:52:08.194Z,48.37
2022-11-24T21:54:36.288Z,46.57
2022-11-24T21:57:05.117Z,56.83
2022-11-24T21:59:32.907Z,61.60
2022-11-24T22:02:00.719Z,54.53
2022-11-24T22:04:30.130Z,58.40
2022-11-24T22:06:58.088Z,57.30
2022-11-24T22:09:25.997Z,69.10
2022-11-24T22:11:54.691Z,42.93
2022-11-24T22:14:22.605Z,37.60
2022-11-24T22:16:50.612Z,41.90
2022-11-24T22:19:18.929Z,47.67
2022-11-24T22:21:48.170Z,45.80
2022-11-24T22:24:16.053Z,45.27
2022-11-24T22:26:43.931Z,33.50
2022-11-24T22:29:11.704Z,46.00
2022-11-24T22:31:39.677Z,49.77
2022-11-24T22:34:07.683Z,48.90
2022-11-24T22:36:36.583Z,30.23
2022-11-24T22:39:06.959Z,39.10
2022-11-24T22:41:36.107Z,32.23
2022-11-24T22:44:04.695Z,40.00
2022-11-24T22:46:33.641Z,26.90
2022-11-24T22:49:02.317Z,34.77
2022-11-24T22:51:32.359Z,33.50
2022-11-24T22:54:02.146Z,31.43
2022-11-24T22:56:32.412Z,41.13
2022-11-24T22:59:00.845Z,32.53
2022-11-24T23:01:29.780Z,31.00
2022-11-24T23:03:57.852Z,29.83
2022-11-24T23:06:27.432Z,24.67
2022-11-24T23:08:56.270Z,29.53
2022-11-24T23:11:31.598Z,29.00
2022-11-24T23:14:02.149Z,35.43
2022-11-24T23:16:30.290Z,32.93
2022-11-24T23:18:58.688Z,34.03
2022-11-24T23:21:28.166Z,30.80
2022-11-24T23:23:56.635Z,35.20
2022-11-24T23:26:28.872Z,29.80
2022-11-24T23:28:56.854Z,39.90
2022-11-24T23:31:28.693Z,30.57
2022-11-24T23:33:56.905Z,40.80
2022-11-24T23:36:24.907Z,47.13
2022-11-24T23:38:53.203Z,41.20
2022-11-24T23:41:22.972Z,45.20
2022-11-24T23:43:50.851Z,40.83
2022-11-24T23:46:20.874Z,47.53
2022-11-24T23:48:51.336Z,42.73
2022-11-24T23:51:20.713Z,61.17
2022-11-24T23:53:48.778Z,38.90
2022-11-24T23:56:18.285Z,37.60
2022-11-24T23:58:46.448Z,40.40
